createdAt,value
2023-07-23T00:00:00.582Z,14.1
2023-07-23T00:01:00.585Z,14.1
2023-07-23T00:02:00.555Z,14.1
2023-07-23T00:03:00.768Z,14.1
2023-07-23T00:04:00.592Z,14.1
2023-07-23T00:05:00.609Z,14.1
2023-07-23T00:06:00.536Z,14
2023-07-23T00:07:00.549Z,14
2023-07-23T00:08:00.543Z,14
2023-07-23T00:09:00.543Z,14
2023-07-23T00:10:00.562Z,14
2023-07-23T00:11:00.539Z,14
2023-07-23T00:12:00.545Z,14
2023-07-23T00:13:00.557Z,14
2023-07-23T00:14:00.560Z,13.9
2023-07-23T00:15:00.547Z,14
2023-07-23T00:16:00.623Z,13.9
2023-07-23T00:17:00.571Z,13.9
2023-07-23T00:18:00.660Z,13.9
2023-07-23T00:19:00.576Z,13.9
2023-07-23T00:20:00.564Z,13.9
2023-07-23T00:21:00.578Z,13.9
2023-07-23T00:22:00.558Z,13.9
2023-07-23T00:23:00.558Z,13.9
2023-07-23T00:24:00.557Z,13.9
2023-07-23T00:25:00.563Z,13.9
2023-07-23T00:26:00.559Z,13.9
2023-07-23T00:27:00.558Z,13.9
2023-07-23T00:28:00.566Z,13.9
2023-07-23T00:29:00.576Z,13.9
2023-07-23T00:30:00.590Z,13.9
2023-07-23T00:31:00.576Z,13.9
2023-07-23T00:32:00.605Z,13.9
2023-07-23T00:33:00.599Z,13.9
2023-07-23T00:34:00.568Z,13.9
2023-07-23T00:35:00.568Z,13.9
2023-07-23T00:36:00.576Z,13.9
2023-07-23T00:37:00.582Z,13.9
2023-07-23T00:38:00.592Z,13.9
2023-07-23T00:39:00.578Z,13.9
2023-07-23T00:40:00.606Z,13.9
2023-07-23T00:41:00.581Z,13.9
2023-07-23T00:42:00.592Z,13.9
2023-07-23T00:43:00.588Z,13.9
2023-07-23T00:44:00.575Z,13.9
2023-07-23T00:45:00.577Z,13.9
2023-07-23T00:46:00.603Z,13.9
2023-07-23T00:47:00.578Z,13.9
2023-07-23T00:48:00.639Z,13.9
2023-07-23T00:49:00.580Z,13.9
2023-07-23T00:50:00.617Z,13.9
2023-07-23T00:51:00.604Z,13.8
2023-07-23T00:52:00.594Z,13.8
2023-07-23T00:53:00.621Z,13.8
2023-07-23T00:54:00.591Z,13.8
2023-07-23T00:55:00.614Z,13.8
2023-07-23T00:56:00.633Z,13.8
2023-07-23T00:57:00.598Z,13.9
2023-07-23T00:58:00.587Z,13.9
2023-07-23T00:59:00.595Z,13.9
2023-07-23T01:00:00.663Z,13.9
2023-07-23T01:01:00.665Z,13.9
2023-07-23T01:02:00.607Z,14
2023-07-23T01:03:00.656Z,13.9
2023-07-23T01:04:00.692Z,14
2023-07-23T01:05:00.606Z,14
2023-07-23T01:06:00.619Z,13.9
2023-07-23T01:07:00.619Z,13.9
2023-07-23T01:08:00.596Z,13.9
2023-07-23T01:09:00.599Z,13.9
2023-07-23T01:10:00.641Z,13.9
2023-07-23T01:11:00.606Z,13.9
2023-07-23T01:12:00.654Z,14
2023-07-23T01:13:00.613Z,13.9
2023-07-23T01:14:00.605Z,13.9
2023-07-23T01:15:00.632Z,13.9
2023-07-23T01:16:00.644Z,13.9
2023-07-23T01:17:00.611Z,13.9
2023-07-23T01:18:00.649Z,13.9
2023-07-23T01:19:00.698Z,13.9
2023-07-23T01:20:00.649Z,13.9
2023-07-23T01:21:00.658Z,13.9
2023-07-23T01:22:00.616Z,13.9
2023-07-23T01:23:00.628Z,13.9
2023-07-23T01:24:00.633Z,13.8
2023-07-23T01:25:00.623Z,13.8
2023-07-23T01:26:00.622Z,13.8
2023-07-23T01:27:00.626Z,13.8
2023-07-23T01:28:00.644Z,13.8
2023-07-23T01:29:00.647Z,13.7
2023-07-23T01:30:00.793Z,13.7
2023-07-23T01:31:00.669Z,13.7
2023-07-23T01:32:00.651Z,13.6
2023-07-23T01:33:00.635Z,13.6
2023-07-23T01:34:00.641Z,13.6
2023-07-23T01:35:00.629Z,13.6
2023-07-23T01:36:00.685Z,13.6
2023-07-23T01:37:00.635Z,13.6
2023-07-23T01:38:00.644Z,13.6
2023-07-23T01:39:00.691Z,13.6
2023-07-23T01:40:00.644Z,13.6
2023-07-23T01:41:00.650Z,13.6
2023-07-23T01:42:00.665Z,13.6
2023-07-23T01:43:00.665Z,13.5
2023-07-23T01:44:00.652Z,13.6
2023-07-23T01:45:00.662Z,13.5
2023-07-23T01:46:00.686Z,13.5
2023-07-23T01:47:00.685Z,13.5
2023-07-23T01:48:00.669Z,13.5
2023-07-23T01:49:00.683Z,13.5
2023-07-23T01:50:00.666Z,13.5
2023-07-23T01:51:00.660Z,13.5
2023-07-23T01:52:00.681Z,13.5
2023-07-23T01:53:00.652Z,13.4
2023-07-23T01:54:00.660Z,13.4
2023-07-23T01:55:00.653Z,13.4
2023-07-23T01:56:00.653Z,13.4
2023-07-23T01:57:00.650Z,13.4
2023-07-23T01:58:00.659Z,13.4
2023-07-23T01:59:00.667Z,13.3
2023-07-23T02:00:00.670Z,13.3
2023-07-23T02:01:01.043Z,13.3
2023-07-23T02:02:01.012Z,13.2
2023-07-23T02:03:01.112Z,13.2
2023-07-23T02:04:00.998Z,13.2
2023-07-23T02:05:00.980Z,13.2
2023-07-23T02:06:01.030Z,13.2
2023-07-23T02:07:00.986Z,13.2
2023-07-23T02:08:00.998Z,13.1
2023-07-23T02:09:01.022Z,13.1
2023-07-23T02:10:01.051Z,13.1
2023-07-23T02:11:01.006Z,13.2
2023-07-23T02:12:01.010Z,13.1
2023-07-23T02:13:00.993Z,13.2
2023-07-23T02:14:01.009Z,13.1
2023-07-23T02:15:00.366Z,13.1
2023-07-23T02:16:00.369Z,13.1
2023-07-23T02:17:00.486Z,13.1
2023-07-23T02:18:00.408Z,13.1
2023-07-23T02:19:00.367Z,13.1
2023-07-23T02:20:00.373Z,13.1
2023-07-23T02:21:00.378Z,13.1
2023-07-23T02:22:00.377Z,13.1
2023-07-23T02:23:00.371Z,13.1
2023-07-23T02:24:00.376Z,13.1
2023-07-23T02:25:00.410Z,13.1
2023-07-23T02:26:00.428Z,13
2023-07-23T02:27:00.379Z,13
2023-07-23T02:28:00.400Z,12.9
2023-07-23T02:29:00.380Z,12.9
2023-07-23T02:30:00.390Z,12.9
2023-07-23T02:31:00.456Z,12.9
2023-07-23T02:32:00.385Z,13
2023-07-23T02:33:00.461Z,12.9
2023-07-23T02:34:00.382Z,12.9
2023-07-23T02:35:00.408Z,12.9
2023-07-23T02:36:00.406Z,12.9
2023-07-23T02:37:00.395Z,12.9
2023-07-23T02:38:00.390Z,12.9
2023-07-23T02:39:00.393Z,12.9
2023-07-23T02:40:00.429Z,12.9
2023-07-23T02:41:00.425Z,12.9
2023-07-23T02:42:00.406Z,12.9
2023-07-23T02:43:00.393Z,12.8
2023-07-23T02:44:00.394Z,12.8
2023-07-23T02:45:00.398Z,12.8
2023-07-23T02:46:00.442Z,12.8
2023-07-23T02:47:00.401Z,12.8
2023-07-23T02:48:00.455Z,12.8
2023-07-23T02:49:00.405Z,12.8
2023-07-23T02:50:00.421Z,12.8
2023-07-23T02:51:00.402Z,12.8
2023-07-23T02:52:00.407Z,12.8
2023-07-23T02:53:00.428Z,12.8
2023-07-23T02:54:00.418Z,12.8
2023-07-23T02:55:00.426Z,12.8
2023-07-23T02:56:00.412Z,12.8
2023-07-23T02:57:00.417Z,12.8
2023-07-23T02:58:00.410Z,12.8
2023-07-23T02:59:00.428Z,12.8
2023-07-23T03:00:00.440Z,12.8
2023-07-23T03:01:00.442Z,12.7
2023-07-23T03:02:00.482Z,12.7
2023-07-23T03:03:00.532Z,12.7
2023-07-23T03:04:00.456Z,12.7
2023-07-23T03:05:00.445Z,12.7
2023-07-23T03:06:00.444Z,12.7
2023-07-23T03:07:00.418Z,12.6
2023-07-23T03:08:00.416Z,12.6
2023-07-23T03:09:00.473Z,12.6
2023-07-23T03:10:00.439Z,12.6
2023-07-23T03:11:00.436Z,12.6
2023-07-23T03:12:00.424Z,12.6
2023-07-23T03:13:00.434Z,12.6
2023-07-23T03:14:00.429Z,12.6
2023-07-23T03:15:00.460Z,12.6
2023-07-23T03:16:00.485Z,12.6
2023-07-23T03:17:00.432Z,12.6
2023-07-23T03:18:00.479Z,12.6
2023-07-23T03:19:00.428Z,12.6
2023-07-23T03:20:00.442Z,12.6
2023-07-23T03:21:00.441Z,12.6
2023-07-23T03:22:00.441Z,12.6
2023-07-23T03:23:00.439Z,12.6
2023-07-23T03:24:00.472Z,12.6
2023-07-23T03:25:00.473Z,12.6
2023-07-23T03:26:00.468Z,12.6
2023-07-23T03:27:00.437Z,12.6
2023-07-23T03:28:00.463Z,12.6
2023-07-23T03:29:00.448Z,12.6
2023-07-23T03:30:00.468Z,12.6
2023-07-23T03:31:00.447Z,12.6
2023-07-23T03:32:00.671Z,12.6
2023-07-23T03:33:00.482Z,12.6
2023-07-23T03:34:00.456Z,12.6
2023-07-23T03:35:00.452Z,12.6
2023-07-23T03:36:00.469Z,12.6
2023-07-23T03:37:00.465Z,12.6
2023-07-23T03:38:00.461Z,12.6
2023-07-23T03:39:00.455Z,12.6
2023-07-23T03:40:00.463Z,12.6
2023-07-23T03:41:00.462Z,12.6
2023-07-23T03:42:00.461Z,12.6
2023-07-23T03:43:00.474Z,12.6
2023-07-23T03:44:00.469Z,12.6
2023-07-23T03:45:00.492Z,12.5
2023-07-23T03:46:00.485Z,12.5
2023-07-23T03:47:00.462Z,12.5
2023-07-23T03:48:00.481Z,12.5
2023-07-23T03:49:00.475Z,12.5
2023-07-23T03:50:00.512Z,12.5
2023-07-23T03:51:00.475Z,12.5
2023-07-23T03:52:00.495Z,12.5
2023-07-23T03:53:00.473Z,12.5
2023-07-23T03:54:00.487Z,12.4
2023-07-23T03:55:00.486Z,12.4
2023-07-23T03:56:00.474Z,12.4
2023-07-23T03:57:00.473Z,12.4
2023-07-23T03:58:00.488Z,12.5
2023-07-23T03:59:00.479Z,12.4
2023-07-23T04:00:00.503Z,12.5
2023-07-23T04:01:00.528Z,12.5
2023-07-23T04:02:00.480Z,12.5
2023-07-23T04:03:00.574Z,12.5
2023-07-23T04:04:00.514Z,12.4
2023-07-23T04:05:00.482Z,12.5
2023-07-23T04:06:00.502Z,12.5
2023-07-23T04:07:00.486Z,12.5
2023-07-23T04:08:00.497Z,12.5
2023-07-23T04:09:00.486Z,12.5
2023-07-23T04:10:00.510Z,12.5
2023-07-23T04:11:00.506Z,12.6
2023-07-23T04:12:00.524Z,12.6
2023-07-23T04:13:00.487Z,12.6
2023-07-23T04:14:00.501Z,12.6
2023-07-23T04:15:00.517Z,12.6
2023-07-23T04:16:00.823Z,12.6
2023-07-23T04:17:00.502Z,12.6
2023-07-23T04:18:00.521Z,12.6
2023-07-23T04:19:00.490Z,12.7
2023-07-23T04:20:00.544Z,12.7
2023-07-23T04:21:00.706Z,12.7
2023-07-23T04:22:00.508Z,12.7
2023-07-23T04:23:00.497Z,12.8
2023-07-23T04:24:00.501Z,12.8
2023-07-23T04:25:00.506Z,12.8
2023-07-23T04:26:00.614Z,12.8
2023-07-23T04:27:00.501Z,12.8
2023-07-23T04:28:00.501Z,12.8
2023-07-23T04:29:00.519Z,12.9
2023-07-23T04:30:00.551Z,12.9
2023-07-23T04:31:00.722Z,12.9
2023-07-23T04:32:00.522Z,12.9
2023-07-23T04:33:00.545Z,12.9
2023-07-23T04:34:00.509Z,12.9
2023-07-23T04:35:00.520Z,13
2023-07-23T04:36:00.734Z,13
2023-07-23T04:37:00.520Z,13
2023-07-23T04:38:00.515Z,13.1
2023-07-23T04:39:00.513Z,13.1
2023-07-23T04:40:00.531Z,13.1
2023-07-23T04:41:00.728Z,13.1
2023-07-23T04:42:00.522Z,13.1
2023-07-23T04:43:00.522Z,13.2
2023-07-23T04:44:00.552Z,13.2
2023-07-23T04:45:00.536Z,13.2
2023-07-23T04:46:00.787Z,13.2
2023-07-23T04:47:00.538Z,13.2
2023-07-23T04:48:00.587Z,13.3
2023-07-23T04:49:00.539Z,13.4
2023-07-23T04:50:00.596Z,13.4
2023-07-23T04:51:00.616Z,13.4
2023-07-23T04:52:00.544Z,13.4
2023-07-23T04:53:00.533Z,13.4
2023-07-23T04:54:00.533Z,13.4
2023-07-23T04:55:00.539Z,13.5
2023-07-23T04:56:00.677Z,13.6
2023-07-23T04:57:00.542Z,13.6
2023-07-23T04:58:00.568Z,13.6
2023-07-23T04:59:00.548Z,13.7
2023-07-23T05:00:00.648Z,13.7
2023-07-23T05:01:00.904Z,13.8
2023-07-23T05:02:00.555Z,13.8
2023-07-23T05:03:00.601Z,13.9
2023-07-23T05:04:00.610Z,13.9
2023-07-23T05:05:00.551Z,14
2023-07-23T05:06:00.817Z,14
2023-07-23T05:07:00.551Z,14.1
2023-07-23T05:08:02.140Z,14.1
2023-07-23T05:09:00.548Z,14.1
2023-07-23T05:10:00.630Z,14.2
2023-07-23T05:11:00.821Z,14.2
2023-07-23T05:12:00.575Z,14.3
2023-07-23T05:13:00.567Z,14.4
2023-07-23T05:14:00.599Z,14.4
2023-07-23T05:15:00.567Z,14.5
2023-07-23T05:16:00.766Z,14.6
2023-07-23T05:17:00.567Z,14.6
2023-07-23T05:18:00.564Z,14.8
2023-07-23T05:19:00.564Z,14.9
2023-07-23T05:20:00.653Z,14.9
2023-07-23T05:21:00.778Z,15
2023-07-23T05:22:00.575Z,15.1
2023-07-23T05:23:00.563Z,15.1
2023-07-23T05:24:00.578Z,15.2
2023-07-23T05:25:00.579Z,15.2
2023-07-23T05:26:00.750Z,15.3
2023-07-23T05:27:00.564Z,15.3
2023-07-23T05:28:00.565Z,15.4
2023-07-23T05:29:00.573Z,15.4
2023-07-23T05:30:00.721Z,15.5
2023-07-23T05:31:00.979Z,15.6
2023-07-23T05:32:00.582Z,15.6
2023-07-23T05:33:00.640Z,15.6
2023-07-23T05:34:00.600Z,15.7
2023-07-23T05:35:00.609Z,15.8
2023-07-23T05:36:00.853Z,15.8
2023-07-23T05:37:00.603Z,15.9
2023-07-23T05:38:00.607Z,15.9
2023-07-23T05:39:00.605Z,16
2023-07-23T05:40:00.612Z,16
2023-07-23T05:41:00.710Z,16.1
2023-07-23T05:42:00.586Z,16.1
2023-07-23T05:43:00.682Z,16.2
2023-07-23T05:44:00.594Z,16.2
2023-07-23T05:45:00.605Z,16.3
2023-07-23T05:46:00.950Z,16.4
2023-07-23T05:47:00.675Z,16.4
2023-07-23T05:48:00.708Z,16.4
2023-07-23T05:49:00.618Z,16.5
2023-07-23T05:50:00.740Z,16.6
2023-07-23T05:51:00.937Z,16.6
2023-07-23T05:52:00.597Z,16.6
2023-07-23T05:53:00.596Z,16.7
2023-07-23T05:54:00.622Z,16.8
2023-07-23T05:55:00.622Z,16.8
2023-07-23T05:56:01.310Z,16.8
2023-07-23T05:57:00.601Z,16.9
2023-07-23T05:58:00.606Z,17
2023-07-23T05:59:00.617Z,17.1
2023-07-23T06:00:00.713Z,17.2
2023-07-23T06:01:00.855Z,17.2
2023-07-23T06:02:00.612Z,17.4
2023-07-23T06:03:00.692Z,17.4
2023-07-23T06:04:00.631Z,17.6
2023-07-23T06:05:00.683Z,17.6
2023-07-23T06:06:00.757Z,17.7
2023-07-23T06:07:00.685Z,17.8
2023-07-23T06:08:00.645Z,17.9
2023-07-23T06:09:00.648Z,18
2023-07-23T06:10:00.706Z,18.1
2023-07-23T06:11:00.837Z,18.2
2023-07-23T06:12:00.668Z,18.3
2023-07-23T06:13:00.702Z,18.4
2023-07-23T06:14:00.646Z,18.4
2023-07-23T06:15:00.665Z,18.6
2023-07-23T06:16:00.823Z,18.6
2023-07-23T06:17:00.658Z,18.6
2023-07-23T06:18:00.675Z,18.7
2023-07-23T06:19:00.631Z,18.8
2023-07-23T06:20:00.632Z,18.8
2023-07-23T06:21:00.781Z,18.9
2023-07-23T06:22:00.640Z,19
2023-07-23T06:23:00.627Z,19.1
2023-07-23T06:24:00.630Z,19.1
2023-07-23T06:25:00.726Z,19.2
2023-07-23T06:26:00.753Z,19.2
2023-07-23T06:27:00.635Z,19.3
2023-07-23T06:28:00.638Z,19.4
2023-07-23T06:29:00.703Z,19.4
2023-07-23T06:30:00.690Z,19.5
2023-07-23T06:31:00.971Z,19.6
2023-07-23T06:32:00.634Z,19.6
2023-07-23T06:33:00.666Z,19.6
2023-07-23T06:34:00.648Z,19.7
2023-07-23T06:35:02.981Z,19.7
2023-07-23T06:36:00.637Z,19.8
2023-07-23T06:37:00.641Z,19.8
2023-07-23T06:38:00.637Z,19.9
2023-07-23T06:39:00.641Z,19.9
2023-07-23T06:40:00.675Z,19.9
2023-07-23T06:41:00.643Z,19.9
2023-07-23T06:42:00.647Z,20
2023-07-23T06:43:00.650Z,20
2023-07-23T06:44:00.653Z,20.1
2023-07-23T06:45:00.662Z,20.1
2023-07-23T06:46:00.712Z,20.1
2023-07-23T06:47:00.670Z,20.1
2023-07-23T06:48:00.719Z,20.2
2023-07-23T06:49:00.658Z,20.2
2023-07-23T06:50:00.675Z,20.2
2023-07-23T06:51:00.658Z,20.2
2023-07-23T06:52:00.656Z,20.2
2023-07-23T06:53:02.291Z,20.2
2023-07-23T06:54:00.670Z,20.2
2023-07-23T06:55:00.658Z,20.3
2023-07-23T06:56:00.658Z,20.3
2023-07-23T06:57:00.721Z,20.3
2023-07-23T06:58:00.668Z,20.3
2023-07-23T06:59:00.660Z,20.4
2023-07-23T07:00:00.743Z,20.4
2023-07-23T07:01:00.675Z,20.4
2023-07-23T07:02:00.701Z,20.3
2023-07-23T07:03:00.777Z,20.3
2023-07-23T07:04:00.666Z,20.4
2023-07-23T07:05:00.683Z,20.4
2023-07-23T07:06:00.665Z,20.4
2023-07-23T07:07:00.668Z,20.4
2023-07-23T07:08:00.690Z,20.4
2023-07-23T07:09:00.704Z,20.4
2023-07-23T07:10:00.691Z,20.4
2023-07-23T07:11:00.682Z,20.4
2023-07-23T07:12:00.713Z,20.4
2023-07-23T07:13:00.694Z,20.4
2023-07-23T07:14:00.680Z,20.5
2023-07-23T07:15:00.684Z,20.5
2023-07-23T07:16:00.699Z,20.6
2023-07-23T07:17:00.679Z,20.6
2023-07-23T07:18:00.704Z,20.7
2023-07-23T07:19:00.697Z,20.8
2023-07-23T07:20:00.709Z,20.8
2023-07-23T07:21:00.686Z,20.9
2023-07-23T07:22:00.681Z,21
2023-07-23T07:23:00.681Z,21.1
2023-07-23T07:24:00.683Z,21.1
2023-07-23T07:25:00.692Z,21.2
2023-07-23T07:26:00.693Z,21.2
2023-07-23T07:27:00.686Z,21.2
2023-07-23T07:28:00.693Z,21.2
2023-07-23T07:29:00.693Z,21.3
2023-07-23T07:30:01.413Z,21.3
2023-07-23T07:31:00.718Z,21.3
2023-07-23T07:32:00.797Z,21.4
2023-07-23T07:33:00.716Z,21.4
2023-07-23T07:34:00.719Z,21.3
2023-07-23T07:35:00.696Z,21.3
2023-07-23T07:36:00.699Z,21.3
2023-07-23T07:37:00.706Z,21.3
2023-07-23T07:38:00.704Z,21.4
2023-07-23T07:39:01.059Z,21.4
2023-07-23T07:40:00.714Z,21.5
2023-07-23T07:41:00.699Z,21.5
2023-07-23T07:42:00.704Z,21.6
2023-07-23T07:43:00.740Z,21.6
2023-07-23T07:44:00.713Z,21.7
2023-07-23T07:45:00.724Z,21.8
2023-07-23T07:46:00.967Z,21.9
2023-07-23T07:47:00.714Z,21.9
2023-07-23T07:48:00.767Z,21.9
2023-07-23T07:49:00.741Z,22
2023-07-23T07:50:00.711Z,22.1
2023-07-23T07:51:00.712Z,22.1
2023-07-23T07:52:00.712Z,22.2
2023-07-23T07:53:00.734Z,22.2
2023-07-23T07:54:00.716Z,22.3
2023-07-23T07:55:00.723Z,22.4
2023-07-23T07:56:00.725Z,22.5
2023-07-23T07:57:00.716Z,22.5
2023-07-23T07:58:00.730Z,22.5
2023-07-23T07:59:01.298Z,22.5
2023-07-23T08:00:00.729Z,22.5
2023-07-23T08:01:00.726Z,22.5
2023-07-23T08:02:00.721Z,22.6
2023-07-23T08:03:00.883Z,22.6
2023-07-23T08:04:00.966Z,22.7
2023-07-23T08:05:00.887Z,22.8
2023-07-23T08:06:00.781Z,22.8
2023-07-23T08:07:00.738Z,22.8
2023-07-23T08:08:00.747Z,22.9
2023-07-23T08:09:00.763Z,23
2023-07-23T08:10:00.733Z,23
2023-07-23T08:11:00.748Z,23
2023-07-23T08:12:00.777Z,23.1
2023-07-23T08:13:00.743Z,23.1
2023-07-23T08:14:00.744Z,23.2
2023-07-23T08:15:00.768Z,23.2
2023-07-23T08:16:00.750Z,23.3
2023-07-23T08:17:00.658Z,23.4
2023-07-23T08:18:00.627Z,23.4
2023-07-23T08:19:00.641Z,23.6
2023-07-23T08:20:00.590Z,23.6
2023-07-23T08:21:00.540Z,23.7
2023-07-23T08:22:00.509Z,23.7
2023-07-23T08:23:00.475Z,23.8
2023-07-23T08:24:00.450Z,23.9
2023-07-23T08:25:00.436Z,24
2023-07-23T08:26:00.412Z,24.1
2023-07-23T08:27:00.364Z,24.1
2023-07-23T08:28:00.342Z,24.2
2023-07-23T08:29:00.335Z,24.3
2023-07-23T08:30:00.315Z,24.3
2023-07-23T08:31:00.362Z,24.4
2023-07-23T08:32:00.320Z,24.4
2023-07-23T08:33:00.373Z,24.5
2023-07-23T08:34:00.317Z,24.6
2023-07-23T08:35:00.336Z,24.6
2023-07-23T08:36:00.318Z,24.7
2023-07-23T08:37:00.331Z,24.8
2023-07-23T08:38:00.333Z,24.9
2023-07-23T08:39:00.321Z,24.9
2023-07-23T08:40:00.325Z,25
2023-07-23T08:41:00.328Z,25.1
2023-07-23T08:42:00.332Z,25.1
2023-07-23T08:43:00.337Z,25.1
2023-07-23T08:44:00.357Z,25.1
2023-07-23T08:45:00.342Z,25.1
2023-07-23T08:46:00.342Z,25
2023-07-23T08:47:00.342Z,25
2023-07-23T08:48:00.358Z,25
2023-07-23T08:49:00.345Z,25
2023-07-23T08:50:02.170Z,25.1
2023-07-23T08:51:00.336Z,25.1
2023-07-23T08:52:00.337Z,25.1
2023-07-23T08:53:00.342Z,25.2
2023-07-23T08:54:00.345Z,25.2
2023-07-23T08:55:00.341Z,25.4
2023-07-23T08:56:00.359Z,25.5
2023-07-23T08:57:00.342Z,25.6
2023-07-23T08:58:00.367Z,25.6
2023-07-23T08:59:00.354Z,25.6
2023-07-23T09:00:00.355Z,25.6
2023-07-23T09:01:00.378Z,25.6
2023-07-23T09:02:00.348Z,25.6
2023-07-23T09:03:00.348Z,25.6
2023-07-23T09:04:00.358Z,25.6
2023-07-23T09:05:00.437Z,25.6
2023-07-23T09:06:00.355Z,25.5
2023-07-23T09:07:00.397Z,25.5
2023-07-23T09:08:00.366Z,25.5
2023-07-23T09:09:00.380Z,25.4
2023-07-23T09:10:00.364Z,25.4
2023-07-23T09:11:00.353Z,25.2
2023-07-23T09:12:00.386Z,25.2
2023-07-23T09:13:00.357Z,25.2
2023-07-23T09:14:00.361Z,25.2
2023-07-23T09:15:00.369Z,25.1
2023-07-23T09:16:01.495Z,25.1
2023-07-23T09:17:00.433Z,25
2023-07-23T09:18:00.431Z,25.1
2023-07-23T09:19:00.367Z,25
2023-07-23T09:20:00.404Z,24.9
2023-07-23T09:21:00.367Z,24.9
2023-07-23T09:22:00.367Z,24.9
2023-07-23T09:23:00.370Z,24.9
2023-07-23T09:24:00.372Z,24.9
2023-07-23T09:25:00.399Z,24.8
2023-07-23T09:26:00.396Z,24.9
2023-07-23T09:27:00.375Z,24.9
2023-07-23T09:28:00.383Z,24.9
2023-07-23T09:29:00.389Z,25
2023-07-23T09:30:00.398Z,25.1
2023-07-23T09:31:00.431Z,25.1
2023-07-23T09:32:00.383Z,25.1
2023-07-23T09:33:00.452Z,25.1
2023-07-23T09:34:00.400Z,25.1
2023-07-23T09:35:00.412Z,25.1
2023-07-23T09:36:00.393Z,25.1
2023-07-23T09:37:00.389Z,25.1
2023-07-23T09:38:00.408Z,25.1
2023-07-23T09:39:00.387Z,25.1
2023-07-23T09:40:00.395Z,25.1
2023-07-23T09:41:00.403Z,25.2
2023-07-23T09:42:00.391Z,25.2
2023-07-23T09:43:00.391Z,25.2
2023-07-23T09:44:00.419Z,25.3
2023-07-23T09:45:00.431Z,25.4
2023-07-23T09:46:00.400Z,25.4
2023-07-23T09:47:00.466Z,25.3
2023-07-23T09:48:13.993Z,25.2
2023-07-23T09:49:00.413Z,25.1
2023-07-23T09:50:00.427Z,25.2
2023-07-23T09:51:00.402Z,25.2
2023-07-23T09:52:00.429Z,25.3
2023-07-23T09:53:00.403Z,25.4
2023-07-23T09:54:00.405Z,25.4
2023-07-23T09:55:00.402Z,25.4
2023-07-23T09:56:00.411Z,25.5
2023-07-23T09:57:03.587Z,25.6
2023-07-23T09:58:00.408Z,25.7
2023-07-23T09:59:00.421Z,25.8
2023-07-23T10:00:00.407Z,25.9
2023-07-23T10:01:00.480Z,26.1
2023-07-23T10:02:00.455Z,26.2
2023-07-23T10:03:01.716Z,26.4
2023-07-23T10:04:00.423Z,26.4
2023-07-23T10:05:00.422Z,26.6
2023-07-23T10:06:00.431Z,26.6
2023-07-23T10:07:00.422Z,26.8
2023-07-23T10:08:00.425Z,26.9
2023-07-23T10:09:00.442Z,27
2023-07-23T10:10:00.439Z,27.1
2023-07-23T10:11:00.442Z,27.2
2023-07-23T10:12:00.449Z,27.3
2023-07-23T10:13:00.422Z,27.4
2023-07-23T10:14:00.429Z,27.6
2023-07-23T10:15:00.435Z,27.8
2023-07-23T10:16:00.428Z,27.9
2023-07-23T10:17:00.442Z,27.9
2023-07-23T10:18:00.561Z,27.9
2023-07-23T10:19:00.431Z,27.9
2023-07-23T10:20:00.442Z,28
2023-07-23T10:21:00.433Z,28.1
2023-07-23T10:22:00.449Z,28.1
2023-07-23T10:23:00.442Z,28.2
2023-07-23T10:24:00.444Z,28
2023-07-23T10:25:00.479Z,27.9
2023-07-23T10:26:00.434Z,27.9
2023-07-23T10:27:00.442Z,27.9
2023-07-23T10:28:00.439Z,28
2023-07-23T10:29:00.465Z,28.1
2023-07-23T10:30:00.446Z,28.1
2023-07-23T10:31:00.469Z,28
2023-07-23T10:32:00.442Z,28
2023-07-23T10:33:00.472Z,27.9
2023-07-23T10:34:00.449Z,27.9
2023-07-23T10:35:00.447Z,27.9
2023-07-23T10:36:00.444Z,27.8
2023-07-23T10:37:00.449Z,27.8
2023-07-23T10:38:00.453Z,27.7
2023-07-23T10:39:00.450Z,27.6
2023-07-23T10:40:00.519Z,27.6
2023-07-23T10:41:00.481Z,27.4
2023-07-23T10:42:00.450Z,27.2
2023-07-23T10:43:00.466Z,27.1
2023-07-23T10:44:00.462Z,27.1
2023-07-23T10:45:00.454Z,27.1
2023-07-23T10:46:00.494Z,27.1
2023-07-23T10:47:00.483Z,27.1
2023-07-23T10:48:00.507Z,27.1
2023-07-23T10:49:00.460Z,27.2
2023-07-23T10:50:00.498Z,27.2
2023-07-23T10:51:00.465Z,27.4
2023-07-23T10:52:00.461Z,27.5
2023-07-23T10:53:00.464Z,27.6
2023-07-23T10:54:00.464Z,27.6
2023-07-23T10:55:00.496Z,27.4
2023-07-23T10:56:00.486Z,27.4
2023-07-23T10:57:00.474Z,27.5
2023-07-23T10:58:00.477Z,27.6
2023-07-23T10:59:00.480Z,27.8
2023-07-23T11:00:00.488Z,27.9
2023-07-23T11:01:00.471Z,28
2023-07-23T11:02:00.526Z,28.2
2023-07-23T11:03:00.576Z,28.2
2023-07-23T11:04:00.536Z,28.4
2023-07-23T11:05:00.498Z,28.4
2023-07-23T11:06:00.478Z,28.4
2023-07-23T11:07:00.479Z,28.4
2023-07-23T11:08:00.477Z,28.4
2023-07-23T11:09:00.493Z,28.4
2023-07-23T11:10:00.485Z,28.4
2023-07-23T11:11:01.577Z,28.4
2023-07-23T11:12:00.526Z,28.4
2023-07-23T11:13:00.506Z,28.4
2023-07-23T11:14:00.501Z,28.4
2023-07-23T11:15:00.489Z,28.6
2023-07-23T11:16:00.584Z,28.6
2023-07-23T11:17:00.486Z,28.6
2023-07-23T11:18:05.884Z,28.6
2023-07-23T11:19:00.504Z,28.6
2023-07-23T11:20:00.510Z,28.6
2023-07-23T11:21:00.493Z,28.5
2023-07-23T11:22:00.501Z,28.6
2023-07-23T11:23:00.513Z,28.5
2023-07-23T11:24:00.513Z,28.5
2023-07-23T11:25:00.528Z,28.6
2023-07-23T11:26:00.525Z,28.6
2023-07-23T11:27:00.502Z,28.6
2023-07-23T11:28:00.501Z,28.6
2023-07-23T11:29:00.503Z,28.5
2023-07-23T11:30:00.514Z,28.5
2023-07-23T11:31:00.578Z,28.6
2023-07-23T11:32:00.506Z,28.6
2023-07-23T11:33:00.587Z,28.6
2023-07-23T11:34:00.520Z,28.7
2023-07-23T11:35:00.516Z,28.8
2023-07-23T11:36:00.523Z,28.9
2023-07-23T11:37:00.549Z,28.9
2023-07-23T11:38:00.525Z,28.9
2023-07-23T11:39:00.528Z,28.9
2023-07-23T11:40:00.519Z,28.9
2023-07-23T11:41:00.522Z,28.9
2023-07-23T11:42:00.626Z,28.9
2023-07-23T11:43:00.524Z,28.9
2023-07-23T11:44:00.521Z,28.9
2023-07-23T11:45:00.518Z,28.9
2023-07-23T11:46:00.554Z,28.9
2023-07-23T11:47:00.528Z,28.9
2023-07-23T11:48:00.584Z,28.8
2023-07-23T11:49:00.523Z,28.9
2023-07-23T11:50:00.537Z,28.9
2023-07-23T11:51:00.529Z,29
2023-07-23T11:52:00.564Z,29.1
2023-07-23T11:53:00.530Z,29.1
2023-07-23T11:54:00.528Z,29.2
2023-07-23T11:55:00.542Z,29.2
2023-07-23T11:56:00.540Z,29.3
2023-07-23T11:57:00.530Z,29.3
2023-07-23T11:58:00.537Z,29.4
2023-07-23T11:59:00.536Z,29.4
2023-07-23T12:00:00.560Z,29.4
2023-07-23T12:01:00.567Z,29.5
2023-07-23T12:02:00.611Z,29.5
2023-07-23T12:03:00.634Z,29.6
2023-07-23T12:04:00.634Z,29.7
2023-07-23T12:05:00.570Z,29.8
2023-07-23T12:06:01.804Z,29.9
2023-07-23T12:07:00.540Z,29.8
2023-07-23T12:08:00.551Z,29.8
2023-07-23T12:09:00.548Z,29.8
2023-07-23T12:10:00.571Z,29.6
2023-07-23T12:11:00.547Z,29.4
2023-07-23T12:12:00.576Z,29.4
2023-07-23T12:13:00.548Z,29.3
2023-07-23T12:14:00.546Z,29.3
2023-07-23T12:15:00.557Z,29.3
2023-07-23T12:16:00.627Z,29.3
2023-07-23T12:17:00.574Z,29.4
2023-07-23T12:18:00.558Z,29.4
2023-07-23T12:19:00.568Z,29.3
2023-07-23T12:20:00.570Z,29.3
2023-07-23T12:21:00.560Z,29.2
2023-07-23T12:22:00.568Z,29.2
2023-07-23T12:23:00.558Z,29.2
2023-07-23T12:24:00.564Z,29.1
2023-07-23T12:25:00.591Z,29
2023-07-23T12:26:00.564Z,28.9
2023-07-23T12:27:00.570Z,28.9
2023-07-23T12:28:00.580Z,28.8
2023-07-23T12:29:00.566Z,28.8
2023-07-23T12:30:00.577Z,28.8
2023-07-23T12:31:00.621Z,28.8
2023-07-23T12:32:00.591Z,28.6
2023-07-23T12:33:00.576Z,28.5
2023-07-23T12:34:00.592Z,28.4
2023-07-23T12:35:00.584Z,28.4
2023-07-23T12:36:00.605Z,28.3
2023-07-23T12:37:00.603Z,28.3
2023-07-23T12:38:00.583Z,28.2
2023-07-23T12:39:00.585Z,28.2
2023-07-23T12:40:00.577Z,28.2
2023-07-23T12:41:00.584Z,28.2
2023-07-23T12:42:00.589Z,28.1
2023-07-23T12:43:00.577Z,28.2
2023-07-23T12:44:00.587Z,28.2
2023-07-23T12:45:00.601Z,28.2
2023-07-23T12:46:00.666Z,28.2
2023-07-23T12:47:00.593Z,28.2
2023-07-23T12:48:00.634Z,28.2
2023-07-23T12:49:00.593Z,28.2
2023-07-23T12:50:00.627Z,28.2
2023-07-23T12:51:00.603Z,28.2
2023-07-23T12:52:00.592Z,28.2
2023-07-23T12:53:00.591Z,28.2
2023-07-23T12:54:00.599Z,28.2
2023-07-23T12:55:00.653Z,28.2
2023-07-23T12:56:00.600Z,28.2
2023-07-23T12:57:00.605Z,28.2
2023-07-23T12:58:00.603Z,28.3
2023-07-23T12:59:00.596Z,28.3
2023-07-23T13:00:00.658Z,28.3
2023-07-23T13:01:00.641Z,28.4
2023-07-23T13:02:00.600Z,28.4
2023-07-23T13:03:00.640Z,28.5
2023-07-23T13:04:00.649Z,28.5
2023-07-23T13:05:00.610Z,28.5
2023-07-23T13:06:00.602Z,28.5
2023-07-23T13:07:00.613Z,28.4
2023-07-23T13:08:00.600Z,28.4
2023-07-23T13:09:00.611Z,28.3
2023-07-23T13:10:00.664Z,28.3
2023-07-23T13:11:00.616Z,28.3
2023-07-23T13:12:00.637Z,28.3
2023-07-23T13:13:00.620Z,28.3
2023-07-23T13:14:00.613Z,28.3
2023-07-23T13:15:00.636Z,28.2
2023-07-23T13:16:00.617Z,28.3
2023-07-23T13:17:00.725Z,28.3
2023-07-23T13:18:00.661Z,28.3
2023-07-23T13:19:00.623Z,28.3
2023-07-23T13:20:00.669Z,28.4
2023-07-23T13:21:00.626Z,28.5